sensor_id;sensor_type;location;lat;lon;timestamp;pressure;altitude;pressure_sealevel;temperature;humidity
36630;BME280;36256;42.154;23.002;2023-09-19T20:39:00;97311.84;;;20.63;100.00
36630;BME280;36256;42.154;23.002;2023-09-19T20:41:27;97327.63;;;20.64;100.00
36630;BME280;36256;42.154;23.002;2023-09-19T20:43:54;97339.28;;;20.77;98.59
36630;BME280;36256;42.154;23.002;2023-09-19T20:46:21;97368.03;;;20.90;99.12
36630;BME280;36256;42.154;23.002;2023-09-19T20:48:49;97369.34;;;21.05;97.32
36630;BME280;36256;42.154;23.002;2023-09-19T20:51:17;97367.47;;;21.19;98.05
36630;BME280;36256;42.154;23.002;2023-09-19T20:53:52;97370.03;;;21.28;97.71
36630;BME280;36256;42.154;23.002;2023-09-19T20:56:20;97370.50;;;21.43;98.75
36630;BME280;36256;42.154;23.002;2023-09-19T20:58:48;97383.94;;;21.59;96.91
36630;BME280;36256;42.154;23.002;2023-09-19T21:01:15;97393.72;;;21.69;96.95
36630;BME280;36256;42.154;23.002;2023-09-19T21:03:42;97392.38;;;21.87;95.81
36630;BME280;36256;42.154;23.002;2023-09-19T21:06:10;97397.00;;;21.96;94.70
36630;BME280;36256;42.154;23.002;2023-09-19T21:08:37;97407.56;;;22.12;93.41
36630;BME280;36256;42.154;23.002;2023-09-19T21:11:19;97416.38;;;22.14;90.89
36630;BME280;36256;42.154;23.002;2023-09-19T21:13:49;97418.19;;;22.17;90.12
36630;BME280;36256;42.154;23.002;2023-09-19T21:16:19;97425.13;;;22.27;89.59
36630;BME280;36256;42.154;23.002;2023-09-19T21:18:48;97433.94;;;22.29;88.92
36630;BME280;36256;42.154;23.002;2023-09-19T21:21:15;97433.09;;;22.39;89.04
36630;BME280;36256;42.154;23.002;2023-09-19T21:23:43;97412.34;;;22.33;90.15
36630;BME280;36256;42.154;23.002;2023-09-19T21:26:10;97412.06;;;22.37;88.46
36630;BME280;36256;42.154;23.002;2023-09-19T21:28:38;97399.88;;;22.36;88.51
36630;BME280;36256;42.154;23.002;2023-09-19T21:31:07;97405.84;;;22.33;87.93
36630;BME280;36256;42.154;23.002;2023-09-19T21:33:37;97383.28;;;22.29;87.62
36630;BME280;36256;42.154;23.002;2023-09-19T21:36:05;97390.50;;;22.36;89.85
36630;BME280;36256;42.154;23.002;2023-09-19T21:38:36;97400.13;;;22.33;90.09
36630;BME280;36256;42.154;23.002;2023-09-19T21:41:10;97389.06;;;22.18;90.26
36630;BME280;36256;42.154;23.002;2023-09-19T21:43:38;97384.19;;;22.08;90.25
36630;BME280;36256;42.154;23.002;2023-09-19T21:46:05;97377.44;;;22.11;90.39
36630;BME280;36256;42.154;23.002;2023-09-19T21:48:32;97376.19;;;22.01;90.64
36630;BME280;36256;42.154;23.002;2023-09-19T21:50:59;97377.00;;;21.96;91.04
36630;BME280;36256;42.154;23.002;2023-09-19T21:53:26;97367.88;;;22.03;90.43
36630;BME280;36256;42.154;23.002;2023-09-19T21:56:01;97371.28;;;21.96;90.87
36630;BME280;36256;42.154;23.002;2023-09-19T21:58:28;97364.84;;;21.90;91.13
36630;BME280;36256;42.154;23.002;2023-09-19T22:00:58;97339.94;;;21.84;90.94
36630;BME280;36256;42.154;23.002;2023-09-19T22:03:29;97322.81;;;21.79;89.76
36630;BME280;36256;42.154;23.002;2023-09-19T22:06:02;97319.88;;;21.96;89.44
36630;BME280;36256;42.154;23.002;2023-09-19T22:08:32;97311.06;;;21.94;88.36
36630;BME280;36256;42.154;23.002;2023-09-19T22:10:59;97307.34;;;21.99;87.66
36630;BME280;36256;42.154;23.002;2023-09-19T22:13:29;97314.94;;;21.96;87.64
36630;BME280;36256;42.154;23.002;2023-09-19T22:15:57;97318.78;;;21.99;87.55
36630;BME280;36256;42.154;23.002;2023-09-19T22:18:28;97315.69;;;21.97;87.39
36630;BME280;36256;42.154;23.002;2023-09-19T22:20:59;97308.97;;;21.94;85.46
36630;BME280;36256;42.154;23.002;2023-09-19T22:23:29;97319.31;;;22.03;85.21
36630;BME280;36256;42.154;23.002;2023-09-19T22:26:05;97318.72;;;22.10;84.63
36630;BME280;36256;42.154;23.002;2023-09-19T22:28:33;97323.38;;;22.13;85.10
36630;BME280;36256;42.154;23.002;2023-09-19T22:31:02;97318.22;;;22.06;85.99
36630;BME280;36256;42.154;23.002;2023-09-19T22:33:35;97329.94;;;22.02;86.01
36630;BME280;36256;42.154;23.002;2023-09-19T22:36:05;97328.13;;;22.05;86.48
36630;BME280;36256;42.154;23.002;2023-09-19T22:38:33;97331.78;;;22.00;86.50
36630;BME280;36256;42.154;23.002;2023-09-19T22:41:02;97337.06;;;21.90;86.83
36630;BME280;36256;42.154;23.002;2023-09-19T22:43:40;97328.50;;;21.84;85.96
36630;BME280;36256;42.154;23.002;2023-09-19T22:46:15;97338.91;;;21.76;87.86
36630;BME280;36256;42.154;23.002;2023-09-19T22:48:44;97338.91;;;21.76;88.21
36630;BME280;36256;42.154;23.002;2023-09-19T22:51:14;97337.69;;;21.66;88.92
36630;BME280;36256;42.154;23.002;2023-09-19T22:53:52;97333.81;;;21.64;88.99
36630;BME280;36256;42.154;23.002;2023-09-19T22:56:24;97336.84;;;21.71;89.31
36630;BME280;36256;42.154;23.002;2023-09-19T22:58:54;97334.06;;;21.66;88.85
36630;BME280;36256;42.154;23.002;2023-09-19T23:01:21;97341.56;;;21.69;89.93
36630;BME280;36256;42.154;23.002;2023-09-19T23:03:50;97346.00;;;21.64;88.96
36630;BME280;36256;42.154;23.002;2023-09-19T23:06:19;97341.84;;;21.65;89.13
36630;BME280;36256;42.154;23.002;2023-09-19T23:08:50;97340.84;;;21.57;88.80
36630;BME280;36256;42.154;23.002;2023-09-19T23:11:21;97346.00;;;21.64;89.08
36630;BME280;36256;42.154;23.002;2023-09-19T23:13:51;97345.44;;;21.71;88.95
36630;BME280;36256;42.154;23.002;2023-09-19T23:16:21;97352.22;;;21.68;89.65
36630;BME280;36256;42.154;23.002;2023-09-19T23:18:55;97353.25;;;21.65;89.55
36630;BME280;36256;42.154;23.002;2023-09-19T23:21:25;97351.53;;;21.51;88.88
36630;BME280;36256;42.154;23.002;2023-09-19T23:23:56;97349.44;;;21.52;90.47
36630;BME280;36256;42.154;23.002;2023-09-19T23:26:25;97351.28;;;21.49;90.25
36630;BME280;36256;42.154;23.002;2023-09-19T23:28:53;97351.28;;;21.49;90.63
36630;BME280;36256;42.154;23.002;2023-09-19T23:31:20;97338.38;;;21.32;90.29
36630;BME280;36256;42.154;23.002;2023-09-19T23:33:48;97355.41;;;21.48;90.71
36630;BME280;36256;42.154;23.002;2023-09-19T23:36:17;97348.50;;;21.27;91.39
36630;BME280;36256;42.154;23.002;2023-09-19T23:38:43;97358.06;;;21.35;91.43
36630;BME280;36256;42.154;23.002;2023-09-19T23:41:13;97357.84;;;21.28;90.64
36630;BME280;36256;42.154;23.002;2023-09-19T23:43:47;97349.28;;;21.28;91.29
36630;BME280;36256;42.154;23.002;2023-09-19T23:46:19;97346.16;;;21.31;90.67
36630;BME280;36256;42.154;23.002;2023-09-19T23:48:47;97343.28;;;21.31;91.28
36630;BME280;36256;42.154;23.002;2023-09-19T23:51:13;97344.59;;;21.30;91.18
36630;BME280;36256;42.154;23.002;2023-09-19T23:53:46;97320.78;;;21.22;90.59
36630;BME280;36256;42.154;23.002;2023-09-19T23:56:12;97335.03;;;21.22;91.42
36630;BME280;36256;42.154;23.002;2023-09-19T23:58:40;97336.84;;;21.25;92.23
